sensor_id;sensor_type;location;lat;lon;timestamp;P1;durP1;ratioP1;P2;durP2;ratioP2
45198;SDS011;30941;46.422;18.772;2024-02-16T00:00:14;19.92;;;12.40;;
45198;SDS011;30941;46.422;18.772;2024-02-16T00:02:41;24.35;;;13.20;;
45198;SDS011;30941;46.422;18.772;2024-02-16T00:05:08;22.80;;;12.98;;
45198;SDS011;30941;46.422;18.772;2024-02-16T00:07:35;19.85;;;12.98;;
45198;SDS011;30941;46.422;18.772;2024-02-16T00:10:00;21.17;;;12.70;;
45198;SDS011;30941;46.422;18.772;2024-02-16T00:12:26;19.35;;;12.45;;
45198;SDS011;30941;46.422;18.772;2024-02-16T00:14:51;18.70;;;12.73;;
45198;SDS011;30941;46.422;18.772;2024-02-16T00:17:16;20.08;;;12.18;;
45198;SDS011;30941;46.422;18.772;2024-02-16T00:19:42;19.88;;;12.82;;
45198;SDS011;30941;46.422;18.772;2024-02-16T00:22:07;19.40;;;13.30;;
45198;SDS011;30941;46.422;18.772;2024-02-16T00:24:33;21.45;;;14.07;;
45198;SDS011;30941;46.422;18.772;2024-02-16T00:26:59;23.13;;;13.73;;
45198;SDS011;30941;46.422;18.772;2024-02-16T00:29:25;20.63;;;13.82;;
45198;SDS011;30941;46.422;18.772;2024-02-16T00:31:50;20.50;;;12.13;;
45198;SDS011;30941;46.422;18.772;2024-02-16T00:34:16;20.45;;;12.68;;
45198;SDS011;30941;46.422;18.772;2024-02-16T00:36:41;21.50;;;13.13;;
45198;SDS011;30941;46.422;18.772;2024-02-16T00:39:06;24.15;;;13.70;;
45198;SDS011;30941;46.422;18.772;2024-02-16T00:41:32;22.65;;;13.55;;
45198;SDS011;30941;46.422;18.772;2024-02-16T00:43:57;25.58;;;14.15;;
45198;SDS011;30941;46.422;18.772;2024-02-16T00:46:22;20.85;;;13.07;;
45198;SDS011;30941;46.422;18.772;2024-02-16T00:48:51;21.00;;;13.27;;
45198;SDS011;30941;46.422;18.772;2024-02-16T00:51:17;20.63;;;13.23;;
45198;SDS011;30941;46.422;18.772;2024-02-16T00:53:43;25.58;;;13.95;;
45198;SDS011;30941;46.422;18.772;2024-02-16T00:56:08;21.25;;;14.10;;
45198;SDS011;30941;46.422;18.772;2024-02-16T00:58:34;25.10;;;14.02;;
45198;SDS011;30941;46.422;18.772;2024-02-16T01:01:00;22.65;;;13.45;;
45198;SDS011;30941;46.422;18.772;2024-02-16T01:03:25;21.38;;;13.95;;
45198;SDS011;30941;46.422;18.772;2024-02-16T01:05:52;25.25;;;14.80;;
45198;SDS011;30941;46.422;18.772;2024-02-16T01:08:17;23.85;;;14.65;;
45198;SDS011;30941;46.422;18.772;2024-02-16T01:10:43;23.83;;;13.43;;
45198;SDS011;30941;46.422;18.772;2024-02-16T01:13:08;21.73;;;13.75;;
45198;SDS011;30941;46.422;18.772;2024-02-16T01:15:35;24.80;;;15.23;;
45198;SDS011;30941;46.422;18.772;2024-02-16T01:18:02;27.63;;;15.45;;
45198;SDS011;30941;46.422;18.772;2024-02-16T01:20:28;30.85;;;16.80;;
45198;SDS011;30941;46.422;18.772;2024-02-16T01:22:56;26.08;;;15.50;;
45198;SDS011;30941;46.422;18.772;2024-02-16T01:25:21;27.70;;;16.58;;
45198;SDS011;30941;46.422;18.772;2024-02-16T01:27:46;31.17;;;17.35;;
45198;SDS011;30941;46.422;18.772;2024-02-16T01:30:12;31.10;;;18.05;;
45198;SDS011;30941;46.422;18.772;2024-02-16T01:32:37;34.55;;;18.10;;
45198;SDS011;30941;46.422;18.772;2024-02-16T01:35:03;29.92;;;16.70;;
45198;SDS011;30941;46.422;18.772;2024-02-16T01:37:28;27.25;;;15.80;;
45198;SDS011;30941;46.422;18.772;2024-02-16T01:39:54;36.03;;;17.58;;
45198;SDS011;30941;46.422;18.772;2024-02-16T01:42:19;32.17;;;17.63;;
45198;SDS011;30941;46.422;18.772;2024-02-16T01:44:44;35.45;;;19.45;;
45198;SDS011;30941;46.422;18.772;2024-02-16T01:47:10;42.80;;;18.27;;
45198;SDS011;30941;46.422;18.772;2024-02-16T01:49:35;40.83;;;21.33;;
45198;SDS011;30941;46.422;18.772;2024-02-16T01:52:01;41.45;;;20.17;;
45198;SDS011;30941;46.422;18.772;2024-02-16T01:54:28;32.25;;;19.55;;
45198;SDS011;30941;46.422;18.772;2024-02-16T01:56:54;35.38;;;18.48;;
45198;SDS011;30941;46.422;18.772;2024-02-16T01:59:20;33.53;;;18.75;;
45198;SDS011;30941;46.422;18.772;2024-02-16T02:01:45;39.45;;;18.83;;
45198;SDS011;30941;46.422;18.772;2024-02-16T02:04:11;40.53;;;20.25;;
45198;SDS011;30941;46.422;18.772;2024-02-16T02:06:36;28.13;;;17.13;;
45198;SDS011;30941;46.422;18.772;2024-02-16T02:09:03;31.77;;;17.17;;
45198;SDS011;30941;46.422;18.772;2024-02-16T02:11:28;32.65;;;17.55;;
45198;SDS011;30941;46.422;18.772;2024-02-16T02:13:54;32.78;;;16.85;;
45198;SDS011;30941;46.422;18.772;2024-02-16T02:16:19;31.38;;;17.80;;
45198;SDS011;30941;46.422;18.772;2024-02-16T02:18:46;26.08;;;16.65;;
45198;SDS011;30941;46.422;18.772;2024-02-16T02:21:11;27.83;;;15.70;;
45198;SDS011;30941;46.422;18.772;2024-02-16T02:23:38;28.85;;;17.40;;
45198;SDS011;30941;46.422;18.772;2024-02-16T02:26:03;29.15;;;17.85;;
45198;SDS011;30941;46.422;18.772;2024-02-16T02:28:29;26.10;;;16.77;;
45198;SDS011;30941;46.422;18.772;2024-02-16T02:30:54;28.33;;;16.05;;
45198;SDS011;30941;46.422;18.772;2024-02-16T02:33:20;25.77;;;15.98;;
45198;SDS011;30941;46.422;18.772;2024-02-16T02:35:46;27.98;;;15.15;;
45198;SDS011;30941;46.422;18.772;2024-02-16T02:38:12;29.25;;;16.80;;
45198;SDS011;30941;46.422;18.772;2024-02-16T02:40:38;25.42;;;15.57;;
45198;SDS011;30941;46.422;18.772;2024-02-16T02:43:03;27.02;;;16.55;;
45198;SDS011;30941;46.422;18.772;2024-02-16T02:45:29;29.55;;;17.08;;
45198;SDS011;30941;46.422;18.772;2024-02-16T02:47:54;30.40;;;16.63;;
45198;SDS011;30941;46.422;18.772;2024-02-16T02:50:19;28.77;;;17.35;;
45198;SDS011;30941;46.422;18.772;2024-02-16T02:52:45;32.97;;;17.05;;
45198;SDS011;30941;46.422;18.772;2024-02-16T02:55:10;30.05;;;17.38;;
45198;SDS011;30941;46.422;18.772;2024-02-16T02:57:36;34.03;;;18.15;;
45198;SDS011;30941;46.422;18.772;2024-02-16T03:00:02;35.50;;;19.70;;
45198;SDS011;30941;46.422;18.772;2024-02-16T03:02:30;31.70;;;18.27;;
45198;SDS011;30941;46.422;18.772;2024-02-16T03:04:56;37.17;;;18.95;;
45198;SDS011;30941;46.422;18.772;2024-02-16T03:07:21;33.90;;;18.08;;
45198;SDS011;30941;46.422;18.772;2024-02-16T03:09:47;33.67;;;19.73;;
45198;SDS011;30941;46.422;18.772;2024-02-16T03:12:12;36.47;;;19.83;;
45198;SDS011;30941;46.422;18.772;2024-02-16T03:14:37;39.75;;;21.00;;
45198;SDS011;30941;46.422;18.772;2024-02-16T03:17:03;37.78;;;20.60;;
45198;SDS011;30941;46.422;18.772;2024-02-16T03:19:28;33.53;;;19.77;;
45198;SDS011;30941;46.422;18.772;2024-02-16T03:21:54;34.95;;;19.92;;
45198;SDS011;30941;46.422;18.772;2024-02-16T03:24:19;34.92;;;18.80;;
45198;SDS011;30941;46.422;18.772;2024-02-16T03:26:45;34.78;;;19.77;;
45198;SDS011;30941;46.422;18.772;2024-02-16T03:29:10;35.17;;;20.17;;
45198;SDS011;30941;46.422;18.772;2024-02-16T03:31:36;37.50;;;20.98;;
45198;SDS011;30941;46.422;18.772;2024-02-16T03:34:02;33.67;;;20.98;;
45198;SDS011;30941;46.422;18.772;2024-02-16T03:36:27;38.10;;;20.35;;
45198;SDS011;30941;46.422;18.772;2024-02-16T03:38:53;38.28;;;21.80;;
45198;SDS011;30941;46.422;18.772;2024-02-16T03:41:19;33.25;;;19.88;;
45198;SDS011;30941;46.422;18.772;2024-02-16T03:43:46;36.95;;;19.88;;
45198;SDS011;30941;46.422;18.772;2024-02-16T03:46:11;38.50;;;22.00;;
45198;SDS011;30941;46.422;18.772;2024-02-16T03:48:36;38.47;;;21.70;;
45198;SDS011;30941;46.422;18.772;2024-02-16T03:51:02;35.25;;;20.65;;
45198;SDS011;30941;46.422;18.772;2024-02-16T03:53:30;38.70;;;21.65;;
45198;SDS011;30941;46.422;18.772;2024-02-16T03:55:56;40.15;;;19.85;;
45198;SDS011;30941;46.422;18.772;2024-02-16T03:58:21;38.33;;;20.35;;
45198;SDS011;30941;46.422;18.772;2024-02-16T04:00:47;37.55;;;19.95;;
45198;SDS011;30941;46.422;18.772;2024-02-16T04:03:14;40.15;;;21.60;;
45198;SDS011;30941;46.422;18.772;2024-02-16T04:05:39;35.75;;;20.08;;
45198;SDS011;30941;46.422;18.772;2024-02-16T04:08:05;39.75;;;19.65;;
45198;SDS011;30941;46.422;18.772;2024-02-16T04:10:31;35.50;;;21.45;;
45198;SDS011;30941;46.422;18.772;2024-02-16T04:12:57;35.95;;;20.52;;
45198;SDS011;30941;46.422;18.772;2024-02-16T04:15:23;38.13;;;21.10;;
45198;SDS011;30941;46.422;18.772;2024-02-16T04:17:48;34.92;;;20.50;;
45198;SDS011;30941;46.422;18.772;2024-02-16T04:20:17;34.97;;;20.42;;
45198;SDS011;30941;46.422;18.772;2024-02-16T04:22:42;36.17;;;19.77;;
45198;SDS011;30941;46.422;18.772;2024-02-16T04:25:08;34.50;;;19.85;;
45198;SDS011;30941;46.422;18.772;2024-02-16T04:27:34;37.78;;;19.45;;
45198;SDS011;30941;46.422;18.772;2024-02-16T04:30:00;35.78;;;20.83;;
45198;SDS011;30941;46.422;18.772;2024-02-16T04:32:25;32.25;;;19.17;;
45198;SDS011;30941;46.422;18.772;2024-02-16T04:34:51;37.00;;;21.30;;
45198;SDS011;30941;46.422;18.772;2024-02-16T04:37:23;36.53;;;20.55;;
45198;SDS011;30941;46.422;18.772;2024-02-16T04:39:50;33.97;;;20.45;;
45198;SDS011;30941;46.422;18.772;2024-02-16T04:42:16;38.08;;;22.38;;
45198;SDS011;30941;46.422;18.772;2024-02-16T04:44:42;35.05;;;19.48;;
45198;SDS011;30941;46.422;18.772;2024-02-16T04:47:07;35.70;;;20.00;;
45198;SDS011;30941;46.422;18.772;2024-02-16T04:49:34;45.50;;;22.58;;
45198;SDS011;30941;46.422;18.772;2024-02-16T04:52:00;40.53;;;21.40;;
45198;SDS011;30941;46.422;18.772;2024-02-16T04:54:25;40.80;;;20.58;;
45198;SDS011;30941;46.422;18.772;2024-02-16T04:56:51;42.50;;;22.17;;
45198;SDS011;30941;46.422;18.772;2024-02-16T04:59:16;41.70;;;22.20;;
45198;SDS011;30941;46.422;18.772;2024-02-16T05:01:45;46.13;;;23.65;;
45198;SDS011;30941;46.422;18.772;2024-02-16T05:04:11;48.03;;;25.00;;
45198;SDS011;30941;46.422;18.772;2024-02-16T05:06:45;45.83;;;24.30;;
45198;SDS011;30941;46.422;18.772;2024-02-16T05:09:11;43.75;;;24.40;;
45198;SDS011;30941;46.422;18.772;2024-02-16T05:11:36;41.50;;;23.90;;
45198;SDS011;30941;46.422;18.772;2024-02-16T05:14:02;43.05;;;23.13;;
45198;SDS011;30941;46.422;18.772;2024-02-16T05:16:28;56.38;;;27.58;;
45198;SDS011;30941;46.422;18.772;2024-02-16T05:18:57;49.55;;;26.30;;
45198;SDS011;30941;46.422;18.772;2024-02-16T05:21:22;55.30;;;26.73;;
45198;SDS011;30941;46.422;18.772;2024-02-16T05:23:48;51.70;;;26.60;;
45198;SDS011;30941;46.422;18.772;2024-02-16T05:26:13;53.40;;;25.73;;
45198;SDS011;30941;46.422;18.772;2024-02-16T05:28:39;53.30;;;26.90;;
45198;SDS011;30941;46.422;18.772;2024-02-16T05:31:14;55.40;;;27.58;;
45198;SDS011;30941;46.422;18.772;2024-02-16T05:33:44;53.05;;;26.83;;
45198;SDS011;30941;46.422;18.772;2024-02-16T05:36:10;46.40;;;25.95;;
45198;SDS011;30941;46.422;18.772;2024-02-16T05:38:35;48.58;;;25.08;;
45198;SDS011;30941;46.422;18.772;2024-02-16T05:41:09;47.08;;;24.52;;
45198;SDS011;30941;46.422;18.772;2024-02-16T05:43:36;46.90;;;23.95;;
45198;SDS011;30941;46.422;18.772;2024-02-16T05:46:02;45.67;;;24.88;;
45198;SDS011;30941;46.422;18.772;2024-02-16T05:48:28;44.38;;;23.90;;
45198;SDS011;30941;46.422;18.772;2024-02-16T05:51:01;40.70;;;22.85;;
45198;SDS011;30941;46.422;18.772;2024-02-16T05:53:27;44.20;;;25.73;;
45198;SDS011;30941;46.422;18.772;2024-02-16T05:55:53;45.13;;;26.13;;
45198;SDS011;30941;46.422;18.772;2024-02-16T05:58:18;51.15;;;29.02;;
45198;SDS011;30941;46.422;18.772;2024-02-16T06:00:44;44.95;;;24.70;;
45198;SDS011;30941;46.422;18.772;2024-02-16T06:03:12;51.95;;;25.58;;
45198;SDS011;30941;46.422;18.772;2024-02-16T06:05:37;46.75;;;26.25;;
45198;SDS011;30941;46.422;18.772;2024-02-16T06:08:04;50.30;;;26.42;;
45198;SDS011;30941;46.422;18.772;2024-02-16T06:10:29;51.88;;;27.60;;
45198;SDS011;30941;46.422;18.772;2024-02-16T06:12:55;54.83;;;29.08;;
45198;SDS011;30941;46.422;18.772;2024-02-16T06:15:20;48.17;;;27.30;;
45198;SDS011;30941;46.422;18.772;2024-02-16T06:17:45;54.47;;;30.58;;
45198;SDS011;30941;46.422;18.772;2024-02-16T06:20:11;51.20;;;27.83;;
45198;SDS011;30941;46.422;18.772;2024-02-16T06:22:36;56.53;;;30.80;;
45198;SDS011;30941;46.422;18.772;2024-02-16T06:25:02;57.67;;;30.65;;
45198;SDS011;30941;46.422;18.772;2024-02-16T06:27:27;60.25;;;31.48;;
45198;SDS011;30941;46.422;18.772;2024-02-16T06:29:53;59.17;;;32.58;;
45198;SDS011;30941;46.422;18.772;2024-02-16T06:32:18;58.90;;;32.03;;
45198;SDS011;30941;46.422;18.772;2024-02-16T06:34:44;62.20;;;30.98;;
45198;SDS011;30941;46.422;18.772;2024-02-16T06:37:10;53.20;;;29.33;;
45198;SDS011;30941;46.422;18.772;2024-02-16T06:39:36;63.80;;;32.03;;
45198;SDS011;30941;46.422;18.772;2024-02-16T06:42:01;81.07;;;38.08;;
45198;SDS011;30941;46.422;18.772;2024-02-16T06:44:27;57.30;;;32.40;;
45198;SDS011;30941;46.422;18.772;2024-02-16T06:46:52;82.22;;;39.55;;
45198;SDS011;30941;46.422;18.772;2024-02-16T06:49:17;99.40;;;51.85;;
45198;SDS011;30941;46.422;18.772;2024-02-16T06:51:43;99.25;;;51.40;;
45198;SDS011;30941;46.422;18.772;2024-02-16T06:54:10;75.63;;;40.60;;
45198;SDS011;30941;46.422;18.772;2024-02-16T06:56:35;56.42;;;30.42;;
45198;SDS011;30941;46.422;18.772;2024-02-16T06:59:01;53.60;;;28.70;;
45198;SDS011;30941;46.422;18.772;2024-02-16T07:01:26;45.97;;;25.67;;
45198;SDS011;30941;46.422;18.772;2024-02-16T07:03:52;47.53;;;25.33;;
45198;SDS011;30941;46.422;18.772;2024-02-16T07:06:18;51.58;;;26.80;;
45198;SDS011;30941;46.422;18.772;2024-02-16T07:08:43;53.55;;;28.50;;
45198;SDS011;30941;46.422;18.772;2024-02-16T07:11:09;48.63;;;28.15;;
45198;SDS011;30941;46.422;18.772;2024-02-16T07:13:37;52.63;;;27.10;;
45198;SDS011;30941;46.422;18.772;2024-02-16T07:16:03;51.90;;;28.02;;
45198;SDS011;30941;46.422;18.772;2024-02-16T07:18:29;45.00;;;25.70;;
45198;SDS011;30941;46.422;18.772;2024-02-16T07:20:55;40.28;;;23.90;;
45198;SDS011;30941;46.422;18.772;2024-02-16T07:23:21;40.55;;;22.30;;
45198;SDS011;30941;46.422;18.772;2024-02-16T07:25:47;38.80;;;21.20;;
45198;SDS011;30941;46.422;18.772;2024-02-16T07:28:13;42.83;;;21.08;;
45198;SDS011;30941;46.422;18.772;2024-02-16T07:30:39;39.22;;;21.00;;
45198;SDS011;30941;46.422;18.772;2024-02-16T07:33:05;34.47;;;20.95;;
45198;SDS011;30941;46.422;18.772;2024-02-16T07:35:32;31.52;;;19.17;;
45198;SDS011;30941;46.422;18.772;2024-02-16T07:38:03;36.42;;;20.10;;
45198;SDS011;30941;46.422;18.772;2024-02-16T07:40:29;32.58;;;20.02;;
45198;SDS011;30941;46.422;18.772;2024-02-16T07:42:55;34.38;;;20.33;;
45198;SDS011;30941;46.422;18.772;2024-02-16T07:45:21;34.60;;;19.13;;
45198;SDS011;30941;46.422;18.772;2024-02-16T07:47:47;32.25;;;19.38;;
45198;SDS011;30941;46.422;18.772;2024-02-16T07:50:12;28.95;;;18.38;;
45198;SDS011;30941;46.422;18.772;2024-02-16T07:52:38;32.75;;;18.63;;
45198;SDS011;30941;46.422;18.772;2024-02-16T07:55:04;36.70;;;19.63;;
45198;SDS011;30941;46.422;18.772;2024-02-16T07:57:31;32.03;;;17.75;;
45198;SDS011;30941;46.422;18.772;2024-02-16T07:59:56;28.13;;;17.77;;
45198;SDS011;30941;46.422;18.772;2024-02-16T08:02:22;29.27;;;18.02;;
45198;SDS011;30941;46.422;18.772;2024-02-16T08:04:48;32.15;;;17.73;;
45198;SDS011;30941;46.422;18.772;2024-02-16T08:07:13;32.15;;;18.23;;
45198;SDS011;30941;46.422;18.772;2024-02-16T08:09:39;34.78;;;18.67;;
45198;SDS011;30941;46.422;18.772;2024-02-16T08:12:04;26.23;;;16.05;;
45198;SDS011;30941;46.422;18.772;2024-02-16T08:14:32;28.05;;;17.65;;
45198;SDS011;30941;46.422;18.772;2024-02-16T08:16:58;28.35;;;17.23;;
45198;SDS011;30941;46.422;18.772;2024-02-16T08:19:25;28.92;;;16.15;;
45198;SDS011;30941;46.422;18.772;2024-02-16T08:21:58;28.30;;;16.92;;
45198;SDS011;30941;46.422;18.772;2024-02-16T08:24:24;30.52;;;16.70;;
45198;SDS011;30941;46.422;18.772;2024-02-16T08:26:50;29.08;;;16.38;;
45198;SDS011;30941;46.422;18.772;2024-02-16T08:29:16;25.70;;;16.23;;
45198;SDS011;30941;46.422;18.772;2024-02-16T08:31:41;31.23;;;17.30;;
45198;SDS011;30941;46.422;18.772;2024-02-16T08:34:06;27.42;;;17.13;;
45198;SDS011;30941;46.422;18.772;2024-02-16T08:36:32;26.33;;;16.52;;
45198;SDS011;30941;46.422;18.772;2024-02-16T08:38:58;26.30;;;15.38;;
45198;SDS011;30941;46.422;18.772;2024-02-16T08:41:24;25.33;;;15.82;;
45198;SDS011;30941;46.422;18.772;2024-02-16T08:43:49;27.17;;;15.63;;
45198;SDS011;30941;46.422;18.772;2024-02-16T08:46:15;27.60;;;15.95;;
45198;SDS011;30941;46.422;18.772;2024-02-16T08:48:41;26.77;;;15.63;;
45198;SDS011;30941;46.422;18.772;2024-02-16T08:51:06;23.48;;;15.27;;
45198;SDS011;30941;46.422;18.772;2024-02-16T08:53:32;26.45;;;15.48;;
45198;SDS011;30941;46.422;18.772;2024-02-16T08:55:57;28.63;;;16.75;;
45198;SDS011;30941;46.422;18.772;2024-02-16T08:58:22;25.25;;;15.75;;
45198;SDS011;30941;46.422;18.772;2024-02-16T09:00:48;22.48;;;14.13;;
45198;SDS011;30941;46.422;18.772;2024-02-16T09:03:14;21.73;;;14.32;;
45198;SDS011;30941;46.422;18.772;2024-02-16T09:05:41;21.90;;;12.68;;
45198;SDS011;30941;46.422;18.772;2024-02-16T09:08:08;25.80;;;13.70;;
45198;SDS011;30941;46.422;18.772;2024-02-16T09:10:34;21.98;;;13.60;;
45198;SDS011;30941;46.422;18.772;2024-02-16T09:12:59;18.73;;;12.27;;
45198;SDS011;30941;46.422;18.772;2024-02-16T09:15:25;19.42;;;12.65;;
45198;SDS011;30941;46.422;18.772;2024-02-16T09:17:50;23.42;;;13.15;;
45198;SDS011;30941;46.422;18.772;2024-02-16T09:20:15;18.40;;;11.70;;
45198;SDS011;30941;46.422;18.772;2024-02-16T09:22:47;17.92;;;12.38;;
45198;SDS011;30941;46.422;18.772;2024-02-16T09:25:13;22.13;;;11.77;;
45198;SDS011;30941;46.422;18.772;2024-02-16T09:27:39;18.58;;;11.35;;
45198;SDS011;30941;46.422;18.772;2024-02-16T09:30:07;20.67;;;10.82;;
45198;SDS011;30941;46.422;18.772;2024-02-16T09:32:32;16.52;;;10.82;;
45198;SDS011;30941;46.422;18.772;2024-02-16T09:34:57;16.70;;;11.13;;
45198;SDS011;30941;46.422;18.772;2024-02-16T09:37:23;16.05;;;10.05;;
45198;SDS011;30941;46.422;18.772;2024-02-16T09:39:48;19.08;;;11.23;;
45198;SDS011;30941;46.422;18.772;2024-02-16T09:42:13;16.63;;;11.75;;
45198;SDS011;30941;46.422;18.772;2024-02-16T09:44:39;20.88;;;11.18;;
45198;SDS011;30941;46.422;18.772;2024-02-16T09:47:05;14.38;;;10.10;;
45198;SDS011;30941;46.422;18.772;2024-02-16T09:49:32;14.77;;;10.55;;
45198;SDS011;30941;46.422;18.772;2024-02-16T09:51:59;17.15;;;11.52;;
45198;SDS011;30941;46.422;18.772;2024-02-16T09:54:25;18.50;;;11.65;;
45198;SDS011;30941;46.422;18.772;2024-02-16T09:56:50;15.75;;;10.90;;
45198;SDS011;30941;46.422;18.772;2024-02-16T09:59:15;13.57;;;10.00;;
45198;SDS011;30941;46.422;18.772;2024-02-16T10:01:41;13.27;;;9.73;;
45198;SDS011;30941;46.422;18.772;2024-02-16T10:04:06;15.50;;;10.32;;
45198;SDS011;30941;46.422;18.772;2024-02-16T10:06:45;19.23;;;11.48;;
45198;SDS011;30941;46.422;18.772;2024-02-16T10:09:21;16.95;;;11.88;;
45198;SDS011;30941;46.422;18.772;2024-02-16T10:11:47;18.50;;;10.88;;
45198;SDS011;30941;46.422;18.772;2024-02-16T10:14:12;16.73;;;11.18;;
45198;SDS011;30941;46.422;18.772;2024-02-16T10:16:38;16.45;;;10.75;;
45198;SDS011;30941;46.422;18.772;2024-02-16T10:19:04;13.52;;;10.52;;
45198;SDS011;30941;46.422;18.772;2024-02-16T10:21:31;15.05;;;9.60;;
45198;SDS011;30941;46.422;18.772;2024-02-16T10:24:00;12.25;;;9.00;;
45198;SDS011;30941;46.422;18.772;2024-02-16T10:26:27;14.60;;;10.48;;
45198;SDS011;30941;46.422;18.772;2024-02-16T10:28:54;11.70;;;8.18;;
45198;SDS011;30941;46.422;18.772;2024-02-16T10:31:24;11.15;;;7.97;;
45198;SDS011;30941;46.422;18.772;2024-02-16T10:34:00;9.88;;;8.02;;
45198;SDS011;30941;46.422;18.772;2024-02-16T10:36:30;10.50;;;8.32;;
45198;SDS011;30941;46.422;18.772;2024-02-16T10:38:56;10.52;;;8.25;;
45198;SDS011;30941;46.422;18.772;2024-02-16T10:41:26;10.60;;;8.38;;
45198;SDS011;30941;46.422;18.772;2024-02-16T10:43:55;11.95;;;8.57;;
45198;SDS011;30941;46.422;18.772;2024-02-16T10:46:21;9.98;;;8.05;;
45198;SDS011;30941;46.422;18.772;2024-02-16T10:48:47;9.82;;;8.18;;
45198;SDS011;30941;46.422;18.772;2024-02-16T10:51:13;10.00;;;7.30;;
45198;SDS011;30941;46.422;18.772;2024-02-16T10:53:40;10.10;;;7.88;;
45198;SDS011;30941;46.422;18.772;2024-02-16T10:56:06;13.80;;;8.43;;
45198;SDS011;30941;46.422;18.772;2024-02-16T10:58:32;11.77;;;8.82;;
45198;SDS011;30941;46.422;18.772;2024-02-16T11:01:07;10.05;;;7.22;;
45198;SDS011;30941;46.422;18.772;2024-02-16T11:03:33;8.88;;;7.35;;
45198;SDS011;30941;46.422;18.772;2024-02-16T11:05:58;8.65;;;7.47;;
45198;SDS011;30941;46.422;18.772;2024-02-16T11:08:24;8.38;;;7.38;;
45198;SDS011;30941;46.422;18.772;2024-02-16T11:11:00;8.50;;;7.10;;
45198;SDS011;30941;46.422;18.772;2024-02-16T11:13:26;8.30;;;7.20;;
45198;SDS011;30941;46.422;18.772;2024-02-16T11:15:59;8.43;;;7.35;;
45198;SDS011;30941;46.422;18.772;2024-02-16T11:18:27;8.20;;;6.47;;
45198;SDS011;30941;46.422;18.772;2024-02-16T11:20:53;8.05;;;6.20;;
45198;SDS011;30941;46.422;18.772;2024-02-16T11:23:24;7.28;;;6.55;;
45198;SDS011;30941;46.422;18.772;2024-02-16T11:25:51;9.48;;;7.50;;
45198;SDS011;30941;46.422;18.772;2024-02-16T11:28:17;9.73;;;7.57;;
45198;SDS011;30941;46.422;18.772;2024-02-16T11:30:43;11.68;;;7.63;;
45198;SDS011;30941;46.422;18.772;2024-02-16T11:33:12;10.88;;;7.32;;
45198;SDS011;30941;46.422;18.772;2024-02-16T11:35:37;11.73;;;7.68;;
45198;SDS011;30941;46.422;18.772;2024-02-16T11:38:03;8.98;;;7.07;;
45198;SDS011;30941;46.422;18.772;2024-02-16T11:40:29;9.35;;;7.32;;
45198;SDS011;30941;46.422;18.772;2024-02-16T11:43:01;9.10;;;7.47;;
45198;SDS011;30941;46.422;18.772;2024-02-16T11:45:27;7.88;;;6.80;;
45198;SDS011;30941;46.422;18.772;2024-02-16T11:50:49;8.70;;;6.85;;
45198;SDS011;30941;46.422;18.772;2024-02-16T11:53:23;11.52;;;6.80;;
45198;SDS011;30941;46.422;18.772;2024-02-16T11:55:48;8.60;;;6.60;;
45198;SDS011;30941;46.422;18.772;2024-02-16T11:58:17;8.77;;;6.68;;
45198;SDS011;30941;46.422;18.772;2024-02-16T12:00:46;12.18;;;6.40;;
45198;SDS011;30941;46.422;18.772;2024-02-16T12:03:22;7.72;;;6.10;;
45198;SDS011;30941;46.422;18.772;2024-02-16T12:05:55;6.82;;;5.50;;
45198;SDS011;30941;46.422;18.772;2024-02-16T12:08:21;8.40;;;6.50;;
45198;SDS011;30941;46.422;18.772;2024-02-16T12:10:48;9.38;;;6.88;;
45198;SDS011;30941;46.422;18.772;2024-02-16T12:13:17;11.30;;;6.10;;
45198;SDS011;30941;46.422;18.772;2024-02-16T12:15:43;9.05;;;6.20;;
45198;SDS011;30941;46.422;18.772;2024-02-16T12:18:21;7.50;;;5.70;;
45198;SDS011;30941;46.422;18.772;2024-02-16T12:21:01;7.72;;;6.65;;
45198;SDS011;30941;46.422;18.772;2024-02-16T12:23:28;7.57;;;6.53;;
45198;SDS011;30941;46.422;18.772;2024-02-16T12:25:56;7.97;;;6.88;;
45198;SDS011;30941;46.422;18.772;2024-02-16T12:28:24;9.20;;;7.30;;
45198;SDS011;30941;46.422;18.772;2024-02-16T12:30:51;12.23;;;8.00;;
45198;SDS011;30941;46.422;18.772;2024-02-16T12:33:16;9.68;;;7.35;;
45198;SDS011;30941;46.422;18.772;2024-02-16T12:35:42;8.77;;;6.75;;
45198;SDS011;30941;46.422;18.772;2024-02-16T12:38:07;7.55;;;5.57;;
45198;SDS011;30941;46.422;18.772;2024-02-16T12:40:33;11.80;;;5.53;;
45198;SDS011;30941;46.422;18.772;2024-02-16T12:42:58;6.68;;;5.45;;
45198;SDS011;30941;46.422;18.772;2024-02-16T12:45:24;8.77;;;5.30;;
45198;SDS011;30941;46.422;18.772;2024-02-16T12:47:49;7.53;;;5.35;;
45198;SDS011;30941;46.422;18.772;2024-02-16T12:50:15;8.07;;;5.93;;
45198;SDS011;30941;46.422;18.772;2024-02-16T12:52:42;8.90;;;5.80;;
45198;SDS011;30941;46.422;18.772;2024-02-16T12:55:08;7.18;;;5.70;;
45198;SDS011;30941;46.422;18.772;2024-02-16T12:57:35;8.18;;;6.85;;
45198;SDS011;30941;46.422;18.772;2024-02-16T13:00:01;7.95;;;6.45;;
45198;SDS011;30941;46.422;18.772;2024-02-16T13:02:27;7.90;;;6.10;;
45198;SDS011;30941;46.422;18.772;2024-02-16T13:04:54;7.30;;;5.80;;
45198;SDS011;30941;46.422;18.772;2024-02-16T13:07:19;8.75;;;6.10;;
45198;SDS011;30941;46.422;18.772;2024-02-16T13:09:45;8.75;;;5.75;;
45198;SDS011;30941;46.422;18.772;2024-02-16T13:12:10;8.65;;;6.50;;
45198;SDS011;30941;46.422;18.772;2024-02-16T13:14:35;8.45;;;5.30;;
45198;SDS011;30941;46.422;18.772;2024-02-16T13:17:01;8.65;;;5.22;;
45198;SDS011;30941;46.422;18.772;2024-02-16T13:19:27;8.55;;;6.05;;
45198;SDS011;30941;46.422;18.772;2024-02-16T13:21:52;7.90;;;4.88;;
45198;SDS011;30941;46.422;18.772;2024-02-16T13:24:18;6.63;;;4.63;;
45198;SDS011;30941;46.422;18.772;2024-02-16T13:26:43;10.57;;;4.85;;
45198;SDS011;30941;46.422;18.772;2024-02-16T13:29:08;7.75;;;4.50;;
45198;SDS011;30941;46.422;18.772;2024-02-16T13:31:34;9.13;;;5.35;;
45198;SDS011;30941;46.422;18.772;2024-02-16T13:33:59;7.45;;;5.10;;
45198;SDS011;30941;46.422;18.772;2024-02-16T13:36:24;6.80;;;4.90;;
45198;SDS011;30941;46.422;18.772;2024-02-16T13:38:50;7.80;;;4.78;;
45198;SDS011;30941;46.422;18.772;2024-02-16T13:41:15;8.07;;;5.18;;
45198;SDS011;30941;46.422;18.772;2024-02-16T13:43:41;6.95;;;4.90;;
45198;SDS011;30941;46.422;18.772;2024-02-16T13:46:06;8.05;;;5.05;;
45198;SDS011;30941;46.422;18.772;2024-02-16T13:48:32;10.82;;;5.63;;
45198;SDS011;30941;46.422;18.772;2024-02-16T13:50:58;6.53;;;4.55;;
45198;SDS011;30941;46.422;18.772;2024-02-16T13:53:25;11.57;;;5.60;;
45198;SDS011;30941;46.422;18.772;2024-02-16T13:55:50;8.25;;;4.72;;
45198;SDS011;30941;46.422;18.772;2024-02-16T13:58:15;12.68;;;5.65;;
45198;SDS011;30941;46.422;18.772;2024-02-16T14:00:40;8.02;;;5.03;;
45198;SDS011;30941;46.422;18.772;2024-02-16T14:03:06;8.25;;;5.03;;
45198;SDS011;30941;46.422;18.772;2024-02-16T14:05:34;8.02;;;4.53;;
45198;SDS011;30941;46.422;18.772;2024-02-16T14:08:03;11.80;;;6.07;;
45198;SDS011;30941;46.422;18.772;2024-02-16T14:10:29;8.57;;;5.45;;